createdAt,value
2023-02-11T00:00:09.848Z,14.45
2023-02-11T00:05:13.400Z,14.18
2023-02-11T00:10:16.852Z,13.25
2023-02-11T00:15:22.316Z,16.33
2023-02-11T00:20:25.820Z,12.18
2023-02-11T00:25:29.305Z,12.65
2023-02-11T00:30:34.292Z,13.30
2023-02-11T00:35:39.022Z,12.88
2023-02-11T00:40:42.558Z,12.00
2023-02-11T00:45:47.464Z,11.82
2023-02-11T00:50:50.865Z,12.13
2023-02-11T00:55:54.214Z,11.75
2023-02-11T01:00:59.122Z,10.82
2023-02-11T01:06:02.702Z,9.48
2023-02-11T01:11:08.794Z,10.13
2023-02-11T01:16:14.278Z,9.68
2023-02-11T01:21:17.668Z,12.43
2023-02-11T01:26:21.120Z,13.50
2023-02-11T01:31:25.940Z,8.77
2023-02-11T01:41:32.617Z,10.05
2023-02-11T01:46:39.271Z,10.77
2023-02-11T01:51:46.765Z,9.50
2023-02-11T01:57:10.494Z,11.43
2023-02-11T02:02:18.860Z,8.52
2023-02-11T02:07:30.527Z,9.98
2023-02-11T02:12:34.006Z,6.57
2023-02-11T02:17:46.242Z,7.47
2023-02-11T02:23:19.177Z,11.05
2023-02-11T02:28:48.548Z,6.40
2023-02-11T02:33:57.917Z,6.85
2023-02-11T02:39:05.971Z,7.70
2023-02-11T02:44:10.300Z,6.93
2023-02-11T02:49:18.076Z,8.00
2023-02-11T02:54:37.636Z,7.90
2023-02-11T02:59:51.936Z,8.27
2023-02-11T03:05:03.575Z,8.93
2023-02-11T03:10:11.952Z,8.48
2023-02-11T03:15:17.915Z,4.85
2023-02-11T03:20:24.463Z,7.85
2023-02-11T03:25:36.585Z,7.32
2023-02-11T03:30:44.450Z,8.32
2023-02-11T03:35:53.488Z,6.68
2023-02-11T03:40:59.357Z,8.32
2023-02-11T03:46:05.061Z,5.70
2023-02-11T03:51:12.865Z,7.35
2023-02-11T03:56:19.088Z,8.45
2023-02-11T04:01:22.710Z,9.73
2023-02-11T04:06:27.607Z,9.85
2023-02-11T04:16:34.382Z,7.75
2023-02-11T04:21:39.341Z,9.90
2023-02-11T04:26:42.848Z,7.88
2023-02-11T04:31:46.412Z,7.85
2023-02-11T04:36:51.519Z,7.35
2023-02-11T04:41:55.032Z,6.20
2023-02-11T04:46:58.767Z,7.60
2023-02-11T04:52:03.645Z,7.35
2023-02-11T04:57:07.213Z,6.68
2023-02-11T05:02:10.576Z,9.05
2023-02-11T05:07:15.688Z,10.18
2023-02-11T05:12:19.412Z,8.65
2023-02-11T05:17:22.944Z,6.80
2023-02-11T05:22:27.860Z,6.53
2023-02-11T05:27:31.270Z,9.20
2023-02-11T05:32:34.808Z,6.57
2023-02-11T05:37:39.714Z,7.60
2023-02-11T05:42:43.266Z,9.02
2023-02-11T05:47:46.729Z,7.75
2023-02-11T05:52:51.525Z,5.85
2023-02-11T05:57:55.123Z,6.15
2023-02-11T06:02:58.583Z,7.38
2023-02-11T06:08:03.368Z,10.27
2023-02-11T06:18:10.142Z,6.82
2023-02-11T06:23:14.912Z,8.75
2023-02-11T06:28:18.408Z,7.22
2023-02-11T06:33:21.826Z,8.70
2023-02-11T06:38:26.733Z,9.27
2023-02-11T06:43:30.230Z,9.85
2023-02-11T06:48:33.601Z,8.60
2023-02-11T06:53:40.100Z,10.63
2023-02-11T06:58:43.656Z,6.07
2023-02-11T07:03:47.365Z,6.95
2023-02-11T07:08:52.130Z,8.35
2023-02-11T07:13:57.600Z,10.20
2023-02-11T07:19:01.127Z,6.72
2023-02-11T07:24:10.764Z,7.97
2023-02-11T07:29:14.673Z,7.78
2023-02-11T07:34:18.290Z,8.02
2023-02-11T07:39:23.184Z,8.73
2023-02-11T07:44:26.560Z,7.60
2023-02-11T07:49:30.212Z,7.28
2023-02-11T07:54:35.198Z,14.48
2023-02-11T07:59:38.710Z,8.82
2023-02-11T08:04:42.144Z,7.03
2023-02-11T08:09:47.321Z,13.18
2023-02-11T08:14:51.573Z,8.35
2023-02-11T08:19:54.961Z,8.70
2023-02-11T08:24:59.970Z,8.82
2023-02-11T08:30:03.375Z,10.88
2023-02-11T08:35:09.515Z,11.55
2023-02-11T08:40:14.510Z,9.82
2023-02-11T08:45:18.082Z,11.75
2023-02-11T08:50:21.859Z,9.93
2023-02-11T08:55:26.684Z,11.82
2023-02-11T09:05:33.193Z,17.50
2023-02-11T09:10:38.415Z,10.05
2023-02-11T09:15:41.777Z,11.20
2023-02-11T09:20:45.099Z,10.63
2023-02-11T09:25:50.232Z,11.20
2023-02-11T09:30:54.187Z,12.07
2023-02-11T09:35:57.914Z,13.30
2023-02-11T09:41:07.927Z,11.68
2023-02-11T09:46:15.442Z,7.57
2023-02-11T09:51:29.574Z,12.05
2023-02-11T09:56:34.538Z,10.00
2023-02-11T10:06:47.603Z,9.60
2023-02-11T10:12:03.240Z,8.48
2023-02-11T10:17:19.153Z,14.68
2023-02-11T10:22:28.708Z,10.00
2023-02-11T10:27:36.018Z,12.45
2023-02-11T10:32:45.937Z,8.52
2023-02-11T10:37:50.064Z,9.35
2023-02-11T10:42:57.969Z,12.73
2023-02-11T10:48:02.530Z,10.38
2023-02-11T10:53:20.774Z,11.80
2023-02-11T10:58:29.732Z,10.20
2023-02-11T11:03:37.813Z,11.02
2023-02-11T11:08:45.064Z,14.00
2023-02-11T11:13:59.458Z,12.95
2023-02-11T11:19:21.572Z,12.90
2023-02-11T11:24:29.699Z,13.10
2023-02-11T11:29:37.269Z,12.68
2023-02-11T11:34:45.330Z,11.65
2023-02-11T11:39:57.267Z,10.23
2023-02-11T11:45:03.343Z,8.07
2023-02-11T11:50:26.745Z,9.70
2023-02-11T11:55:36.602Z,10.85
2023-02-11T12:00:53.424Z,11.82
2023-02-11T12:06:22.359Z,11.00
2023-02-11T12:11:34.708Z,13.40
2023-02-11T12:16:48.590Z,12.63
2023-02-11T12:22:02.719Z,12.65
2023-02-11T12:27:13.013Z,13.13
2023-02-11T12:32:27.648Z,12.52
2023-02-11T12:37:43.694Z,11.88
2023-02-11T12:43:14.024Z,13.48
2023-02-11T12:48:35.969Z,12.77
2023-02-11T12:54:16.168Z,13.60
2023-02-11T12:59:30.929Z,12.65
2023-02-11T13:04:42.279Z,16.67
2023-02-11T13:09:52.694Z,18.45
2023-02-11T13:15:00.728Z,16.88
2023-02-11T13:20:16.308Z,17.75
2023-02-11T13:25:31.035Z,17.83
2023-02-11T13:31:12.964Z,19.17
2023-02-11T13:36:21.041Z,16.48
2023-02-11T13:41:28.995Z,19.40
2023-02-11T13:47:09.978Z,19.15
2023-02-11T13:52:26.251Z,22.27
2023-02-11T13:57:39.472Z,21.55
2023-02-11T14:03:00.556Z,22.15
2023-02-11T14:08:39.221Z,25.15
2023-02-11T14:14:19.459Z,27.52
2023-02-11T14:19:33.724Z,22.23
2023-02-11T14:24:52.381Z,18.02
2023-02-11T14:30:10.406Z,24.58
2023-02-11T14:35:21.939Z,24.00
2023-02-11T14:40:33.464Z,23.35
2023-02-11T14:45:38.591Z,22.23
2023-02-11T14:50:45.647Z,25.30
2023-02-11T14:55:52.733Z,19.60
2023-02-11T15:00:58.990Z,23.33
2023-02-11T15:06:06.779Z,19.25
2023-02-11T15:11:14.600Z,20.35
2023-02-11T15:16:21.806Z,21.00
2023-02-11T15:21:28.053Z,20.55
2023-02-11T15:26:33.439Z,26.63
2023-02-11T15:31:37.177Z,18.73
2023-02-11T15:36:40.813Z,27.23
2023-02-11T15:41:47.305Z,25.30
2023-02-11T15:46:50.888Z,24.83
2023-02-11T15:51:58.330Z,24.52
2023-02-11T15:57:06.417Z,23.83
2023-02-11T16:02:17.627Z,23.63
2023-02-11T16:07:43.079Z,26.48
2023-02-11T16:12:54.896Z,21.95
2023-02-11T16:17:58.770Z,21.95
2023-02-11T16:23:04.117Z,23.27
2023-02-11T16:28:17.475Z,25.02
2023-02-11T16:33:21.574Z,22.98
2023-02-11T16:38:25.380Z,21.80
2023-02-11T16:43:30.408Z,23.95
2023-02-11T16:48:35.180Z,16.45
2023-02-11T16:53:38.539Z,18.52
2023-02-11T16:58:43.645Z,19.80
2023-02-11T17:03:47.160Z,18.95
2023-02-11T17:08:50.740Z,18.50
2023-02-11T17:13:55.688Z,20.42
2023-02-11T17:18:59.075Z,19.58
2023-02-11T17:24:02.412Z,17.85
2023-02-11T17:29:08.581Z,21.63
2023-02-11T17:34:12.818Z,22.20
2023-02-11T17:39:16.517Z,18.65
2023-02-11T17:44:21.345Z,19.00
2023-02-11T17:54:28.307Z,20.08
2023-02-11T17:59:35.647Z,23.13
2023-02-11T18:04:39.386Z,22.88
2023-02-11T18:09:43.285Z,20.20
2023-02-11T18:14:48.073Z,20.57
2023-02-11T18:19:51.730Z,23.90
2023-02-11T18:24:55.938Z,18.02
2023-02-11T18:30:00.768Z,21.92
2023-02-11T18:40:08.239Z,19.33
2023-02-11T18:45:15.908Z,16.10
2023-02-11T18:50:22.292Z,17.35
2023-02-11T18:55:26.409Z,18.92
2023-02-11T19:00:31.492Z,18.05
2023-02-11T19:05:42.585Z,16.25
2023-02-11T19:10:48.345Z,20.45
2023-02-11T19:15:53.630Z,20.38
2023-02-11T19:20:57.127Z,18.70
2023-02-11T19:26:00.571Z,18.52
2023-02-11T19:31:10.657Z,15.57
2023-02-11T19:36:16.542Z,14.65
2023-02-11T19:41:22.363Z,16.20
2023-02-11T19:46:28.586Z,14.80
2023-02-11T19:51:33.926Z,15.10
2023-02-11T19:56:38.233Z,15.20
2023-02-11T20:01:44.633Z,16.15
2023-02-11T20:06:49.636Z,16.98
2023-02-11T20:11:53.167Z,16.70
2023-02-11T20:16:58.192Z,17.45
2023-02-11T20:22:01.711Z,14.80
2023-02-11T20:27:08.444Z,14.52
2023-02-11T20:32:13.760Z,15.55
2023-02-11T20:37:18.033Z,13.77
2023-02-11T20:42:21.405Z,12.68
2023-02-11T20:47:26.344Z,15.73
2023-02-11T20:52:29.931Z,13.95
2023-02-11T20:57:35.218Z,12.50
2023-02-11T21:02:40.357Z,16.70
2023-02-11T21:07:43.781Z,15.88
2023-02-11T21:12:49.797Z,13.30
2023-02-11T21:17:54.764Z,14.80
2023-02-11T21:22:58.175Z,13.02
2023-02-11T21:28:01.731Z,14.77
2023-02-11T21:33:07.147Z,15.02
2023-02-11T21:38:10.708Z,14.15
2023-02-11T21:43:14.211Z,15.30
2023-02-11T21:48:20.090Z,13.05
2023-02-11T21:53:23.464Z,10.90
2023-02-11T21:58:26.862Z,13.20
2023-02-11T22:03:31.712Z,15.68
2023-02-11T22:13:38.424Z,11.07
2023-02-11T22:18:46.049Z,11.07
2023-02-11T22:23:50.314Z,12.88
2023-02-11T22:28:53.868Z,11.68
2023-02-11T22:33:59.256Z,11.60
2023-02-11T22:39:03.940Z,10.75
2023-02-11T22:44:07.660Z,11.82
2023-02-11T22:49:15.531Z,13.55
2023-02-11T22:54:20.422Z,10.40
2023-02-11T23:04:28.618Z,8.43
2023-02-11T23:09:31.968Z,8.15
2023-02-11T23:14:35.417Z,7.53
2023-02-11T23:19:40.154Z,7.10
2023-02-11T23:29:47.375Z,4.60
2023-02-11T23:34:52.976Z,5.23
2023-02-11T23:39:56.336Z,4.65
2023-02-11T23:44:59.819Z,4.00
2023-02-11T23:50:04.969Z,4.03
2023-02-11T23:55:08.622Z,6.18
